sensor_id;sensor_type;location;lat;lon;timestamp;P1;durP1;ratioP1;P2;durP2;ratioP2
22068;SDS011;13887;57.196;-2.100;2023-09-08T00:00:27;12.77;;;12.37;;
22068;SDS011;13887;57.196;-2.100;2023-09-08T00:02:54;13.07;;;12.67;;
22068;SDS011;13887;57.196;-2.100;2023-09-08T00:05:22;13.03;;;12.63;;
22068;SDS011;13887;57.196;-2.100;2023-09-08T00:07:50;13.60;;;13.10;;
22068;SDS011;13887;57.196;-2.100;2023-09-08T00:10:18;13.33;;;12.93;;
22068;SDS011;13887;57.196;-2.100;2023-09-08T00:12:46;13.30;;;12.90;;
22068;SDS011;13887;57.196;-2.100;2023-09-08T00:15:13;13.10;;;12.70;;
22068;SDS011;13887;57.196;-2.100;2023-09-08T00:17:41;13.20;;;12.80;;
22068;SDS011;13887;57.196;-2.100;2023-09-08T00:20:08;13.23;;;12.83;;
22068;SDS011;13887;57.196;-2.100;2023-09-08T00:22:37;13.27;;;12.87;;
22068;SDS011;13887;57.196;-2.100;2023-09-08T00:25:05;13.80;;;13.30;;
22068;SDS011;13887;57.196;-2.100;2023-09-08T00:27:32;13.43;;;13.03;;
22068;SDS011;13887;57.196;-2.100;2023-09-08T00:30:00;13.60;;;13.10;;
22068;SDS011;13887;57.196;-2.100;2023-09-08T00:32:29;13.13;;;12.73;;
22068;SDS011;13887;57.196;-2.100;2023-09-08T00:34:59;13.30;;;12.90;;
22068;SDS011;13887;57.196;-2.100;2023-09-08T00:37:26;13.43;;;13.00;;
22068;SDS011;13887;57.196;-2.100;2023-09-08T00:39:53;13.63;;;13.13;;
22068;SDS011;13887;57.196;-2.100;2023-09-08T00:42:21;13.37;;;12.97;;
22068;SDS011;13887;57.196;-2.100;2023-09-08T00:44:48;13.90;;;13.40;;
22068;SDS011;13887;57.196;-2.100;2023-09-08T00:47:16;13.97;;;13.47;;
22068;SDS011;13887;57.196;-2.100;2023-09-08T00:49:44;13.80;;;13.30;;
22068;SDS011;13887;57.196;-2.100;2023-09-08T00:52:13;13.90;;;13.40;;
22068;SDS011;13887;57.196;-2.100;2023-09-08T00:54:41;13.90;;;13.40;;
22068;SDS011;13887;57.196;-2.100;2023-09-08T00:57:09;14.03;;;13.53;;
22068;SDS011;13887;57.196;-2.100;2023-09-08T00:59:37;13.57;;;13.07;;
22068;SDS011;13887;57.196;-2.100;2023-09-08T01:02:04;13.80;;;13.30;;
22068;SDS011;13887;57.196;-2.100;2023-09-08T01:04:32;13.87;;;13.37;;
22068;SDS011;13887;57.196;-2.100;2023-09-08T01:07:00;13.73;;;13.23;;
22068;SDS011;13887;57.196;-2.100;2023-09-08T01:09:27;14.00;;;13.50;;
22068;SDS011;13887;57.196;-2.100;2023-09-08T01:11:56;14.13;;;13.63;;
22068;SDS011;13887;57.196;-2.100;2023-09-08T01:14:28;13.70;;;13.20;;
22068;SDS011;13887;57.196;-2.100;2023-09-08T01:16:56;13.53;;;13.10;;
22068;SDS011;13887;57.196;-2.100;2023-09-08T01:19:23;13.70;;;13.20;;
22068;SDS011;13887;57.196;-2.100;2023-09-08T01:27:40;13.37;;;12.97;;
22068;SDS011;13887;57.196;-2.100;2023-09-08T01:30:12;13.90;;;13.40;;
22068;SDS011;13887;57.196;-2.100;2023-09-08T01:32:40;14.00;;;13.50;;
22068;SDS011;13887;57.196;-2.100;2023-09-08T01:35:08;14.03;;;13.53;;
22068;SDS011;13887;57.196;-2.100;2023-09-08T01:37:41;13.63;;;13.13;;
22068;SDS011;13887;57.196;-2.100;2023-09-08T01:40:09;13.60;;;13.10;;
22068;SDS011;13887;57.196;-2.100;2023-09-08T01:42:37;13.93;;;13.43;;
22068;SDS011;13887;57.196;-2.100;2023-09-08T01:45:06;13.80;;;13.30;;
22068;SDS011;13887;57.196;-2.100;2023-09-08T01:47:34;13.73;;;13.23;;
22068;SDS011;13887;57.196;-2.100;2023-09-08T01:50:01;13.60;;;13.10;;
22068;SDS011;13887;57.196;-2.100;2023-09-08T01:52:29;13.60;;;13.10;;
22068;SDS011;13887;57.196;-2.100;2023-09-08T01:54:56;13.37;;;12.97;;
22068;SDS011;13887;57.196;-2.100;2023-09-08T01:57:23;13.70;;;13.20;;
22068;SDS011;13887;57.196;-2.100;2023-09-08T01:59:50;13.40;;;12.97;;
22068;SDS011;13887;57.196;-2.100;2023-09-08T02:02:18;13.37;;;12.97;;
22068;SDS011;13887;57.196;-2.100;2023-09-08T02:04:46;13.60;;;13.10;;
22068;SDS011;13887;57.196;-2.100;2023-09-08T02:07:13;13.80;;;13.30;;
22068;SDS011;13887;57.196;-2.100;2023-09-08T02:09:41;13.70;;;13.20;;
22068;SDS011;13887;57.196;-2.100;2023-09-08T02:12:09;13.73;;;13.23;;
22068;SDS011;13887;57.196;-2.100;2023-09-08T02:14:36;13.60;;;13.10;;
22068;SDS011;13887;57.196;-2.100;2023-09-08T02:17:04;13.60;;;13.10;;
22068;SDS011;13887;57.196;-2.100;2023-09-08T02:19:32;13.20;;;12.80;;
22068;SDS011;13887;57.196;-2.100;2023-09-08T02:22:00;13.53;;;13.03;;
22068;SDS011;13887;57.196;-2.100;2023-09-08T02:24:28;13.23;;;12.83;;
22068;SDS011;13887;57.196;-2.100;2023-09-08T02:26:56;13.30;;;12.90;;
22068;SDS011;13887;57.196;-2.100;2023-09-08T02:29:24;13.27;;;12.87;;
22068;SDS011;13887;57.196;-2.100;2023-09-08T02:31:52;13.67;;;13.17;;
22068;SDS011;13887;57.196;-2.100;2023-09-08T02:34:19;13.17;;;12.77;;
22068;SDS011;13887;57.196;-2.100;2023-09-08T02:36:46;13.10;;;12.70;;
22068;SDS011;13887;57.196;-2.100;2023-09-08T02:39:15;13.40;;;13.00;;
22068;SDS011;13887;57.196;-2.100;2023-09-08T02:41:43;13.53;;;13.07;;
22068;SDS011;13887;57.196;-2.100;2023-09-08T02:44:10;13.67;;;13.17;;
22068;SDS011;13887;57.196;-2.100;2023-09-08T02:46:37;13.70;;;13.20;;
22068;SDS011;13887;57.196;-2.100;2023-09-08T02:49:05;13.83;;;13.33;;
22068;SDS011;13887;57.196;-2.100;2023-09-08T02:51:33;13.77;;;13.27;;
22068;SDS011;13887;57.196;-2.100;2023-09-08T02:54:00;13.43;;;12.97;;
22068;SDS011;13887;57.196;-2.100;2023-09-08T02:56:27;13.23;;;12.83;;
22068;SDS011;13887;57.196;-2.100;2023-09-08T02:58:54;13.23;;;12.83;;
22068;SDS011;13887;57.196;-2.100;2023-09-08T03:01:21;12.60;;;12.20;;
22068;SDS011;13887;57.196;-2.100;2023-09-08T03:03:49;12.67;;;12.27;;
22068;SDS011;13887;57.196;-2.100;2023-09-08T03:06:19;12.83;;;12.43;;
22068;SDS011;13887;57.196;-2.100;2023-09-08T03:08:48;12.87;;;12.47;;
22068;SDS011;13887;57.196;-2.100;2023-09-08T03:11:15;12.67;;;12.27;;
22068;SDS011;13887;57.196;-2.100;2023-09-08T03:13:43;13.07;;;12.67;;
22068;SDS011;13887;57.196;-2.100;2023-09-08T03:16:10;12.93;;;12.53;;
22068;SDS011;13887;57.196;-2.100;2023-09-08T03:18:38;13.13;;;12.73;;
22068;SDS011;13887;57.196;-2.100;2023-09-08T03:21:05;13.40;;;13.00;;
22068;SDS011;13887;57.196;-2.100;2023-09-08T03:23:38;13.30;;;12.90;;
22068;SDS011;13887;57.196;-2.100;2023-09-08T03:26:07;13.37;;;12.93;;
22068;SDS011;13887;57.196;-2.100;2023-09-08T03:28:35;13.47;;;13.00;;
22068;SDS011;13887;57.196;-2.100;2023-09-08T03:31:04;12.80;;;12.40;;
22068;SDS011;13887;57.196;-2.100;2023-09-08T03:33:33;13.10;;;12.70;;
22068;SDS011;13887;57.196;-2.100;2023-09-08T03:36:03;13.20;;;12.80;;
22068;SDS011;13887;57.196;-2.100;2023-09-08T03:38:31;12.90;;;12.50;;
22068;SDS011;13887;57.196;-2.100;2023-09-08T03:40:59;13.17;;;12.77;;
22068;SDS011;13887;57.196;-2.100;2023-09-08T03:43:26;12.90;;;12.50;;
22068;SDS011;13887;57.196;-2.100;2023-09-08T03:45:54;13.40;;;13.00;;
22068;SDS011;13887;57.196;-2.100;2023-09-08T03:48:21;13.50;;;13.03;;
22068;SDS011;13887;57.196;-2.100;2023-09-08T03:50:48;13.07;;;12.67;;
22068;SDS011;13887;57.196;-2.100;2023-09-08T03:53:16;13.07;;;12.67;;
22068;SDS011;13887;57.196;-2.100;2023-09-08T03:55:44;13.00;;;12.60;;
22068;SDS011;13887;57.196;-2.100;2023-09-08T03:58:13;13.20;;;12.80;;
22068;SDS011;13887;57.196;-2.100;2023-09-08T04:00:40;13.10;;;12.70;;
22068;SDS011;13887;57.196;-2.100;2023-09-08T04:03:08;12.87;;;12.47;;
22068;SDS011;13887;57.196;-2.100;2023-09-08T04:05:36;13.00;;;12.60;;
22068;SDS011;13887;57.196;-2.100;2023-09-08T04:08:03;12.97;;;12.57;;
22068;SDS011;13887;57.196;-2.100;2023-09-08T04:10:33;13.40;;;13.00;;
22068;SDS011;13887;57.196;-2.100;2023-09-08T04:13:00;13.17;;;12.77;;
22068;SDS011;13887;57.196;-2.100;2023-09-08T04:15:27;12.80;;;12.40;;
22068;SDS011;13887;57.196;-2.100;2023-09-08T04:17:54;13.10;;;12.70;;
22068;SDS011;13887;57.196;-2.100;2023-09-08T04:20:24;12.90;;;12.50;;
22068;SDS011;13887;57.196;-2.100;2023-09-08T04:22:53;12.83;;;12.43;;
22068;SDS011;13887;57.196;-2.100;2023-09-08T04:25:20;13.20;;;12.80;;
22068;SDS011;13887;57.196;-2.100;2023-09-08T04:27:48;13.50;;;13.00;;
22068;SDS011;13887;57.196;-2.100;2023-09-08T04:30:16;12.87;;;12.47;;
22068;SDS011;13887;57.196;-2.100;2023-09-08T04:32:44;13.00;;;12.60;;
22068;SDS011;13887;57.196;-2.100;2023-09-08T04:35:12;13.10;;;12.70;;
22068;SDS011;13887;57.196;-2.100;2023-09-08T04:37:39;13.17;;;12.77;;
22068;SDS011;13887;57.196;-2.100;2023-09-08T04:40:06;13.27;;;12.87;;
22068;SDS011;13887;57.196;-2.100;2023-09-08T04:42:35;12.87;;;12.47;;
22068;SDS011;13887;57.196;-2.100;2023-09-08T04:45:03;12.87;;;12.47;;
22068;SDS011;13887;57.196;-2.100;2023-09-08T04:47:32;13.10;;;12.70;;
22068;SDS011;13887;57.196;-2.100;2023-09-08T04:49:59;12.40;;;12.00;;
22068;SDS011;13887;57.196;-2.100;2023-09-08T04:52:28;13.00;;;12.60;;
22068;SDS011;13887;57.196;-2.100;2023-09-08T04:54:55;12.93;;;12.53;;
22068;SDS011;13887;57.196;-2.100;2023-09-08T04:57:23;12.80;;;12.40;;
22068;SDS011;13887;57.196;-2.100;2023-09-08T04:59:55;13.03;;;12.63;;
22068;SDS011;13887;57.196;-2.100;2023-09-08T05:02:22;12.90;;;12.50;;
22068;SDS011;13887;57.196;-2.100;2023-09-08T05:04:50;12.77;;;12.37;;
22068;SDS011;13887;57.196;-2.100;2023-09-08T05:07:17;12.87;;;12.47;;
22068;SDS011;13887;57.196;-2.100;2023-09-08T05:09:46;12.73;;;12.33;;
22068;SDS011;13887;57.196;-2.100;2023-09-08T05:12:14;12.40;;;12.00;;
22068;SDS011;13887;57.196;-2.100;2023-09-08T05:14:41;13.00;;;12.60;;
22068;SDS011;13887;57.196;-2.100;2023-09-08T05:17:08;12.80;;;12.40;;
22068;SDS011;13887;57.196;-2.100;2023-09-08T05:19:36;12.87;;;12.47;;
22068;SDS011;13887;57.196;-2.100;2023-09-08T05:22:04;12.90;;;12.50;;
22068;SDS011;13887;57.196;-2.100;2023-09-08T05:24:32;12.93;;;12.53;;
22068;SDS011;13887;57.196;-2.100;2023-09-08T05:26:59;13.00;;;12.60;;
22068;SDS011;13887;57.196;-2.100;2023-09-08T05:29:27;12.90;;;12.50;;
22068;SDS011;13887;57.196;-2.100;2023-09-08T05:31:54;12.93;;;12.53;;
22068;SDS011;13887;57.196;-2.100;2023-09-08T05:34:21;12.60;;;12.20;;
22068;SDS011;13887;57.196;-2.100;2023-09-08T05:36:49;12.87;;;12.47;;
22068;SDS011;13887;57.196;-2.100;2023-09-08T05:39:17;12.40;;;12.00;;
22068;SDS011;13887;57.196;-2.100;2023-09-08T05:41:46;12.97;;;12.57;;
22068;SDS011;13887;57.196;-2.100;2023-09-08T05:44:13;12.50;;;12.10;;
22068;SDS011;13887;57.196;-2.100;2023-09-08T05:46:41;12.87;;;12.47;;
22068;SDS011;13887;57.196;-2.100;2023-09-08T05:49:08;12.47;;;12.07;;
22068;SDS011;13887;57.196;-2.100;2023-09-08T05:51:36;12.60;;;12.20;;
22068;SDS011;13887;57.196;-2.100;2023-09-08T05:54:04;12.40;;;12.00;;
22068;SDS011;13887;57.196;-2.100;2023-09-08T05:56:33;12.70;;;12.30;;
22068;SDS011;13887;57.196;-2.100;2023-09-08T05:59:02;13.00;;;12.60;;
22068;SDS011;13887;57.196;-2.100;2023-09-08T06:01:30;12.90;;;12.50;;
22068;SDS011;13887;57.196;-2.100;2023-09-08T06:04:00;13.13;;;12.73;;
22068;SDS011;13887;57.196;-2.100;2023-09-08T06:06:29;13.60;;;13.10;;
22068;SDS011;13887;57.196;-2.100;2023-09-08T06:08:58;13.00;;;12.60;;
22068;SDS011;13887;57.196;-2.100;2023-09-08T06:11:26;12.80;;;12.40;;
22068;SDS011;13887;57.196;-2.100;2023-09-08T06:13:54;13.07;;;12.67;;
22068;SDS011;13887;57.196;-2.100;2023-09-08T06:16:31;13.17;;;12.77;;
22068;SDS011;13887;57.196;-2.100;2023-09-08T06:18:58;13.10;;;12.70;;
22068;SDS011;13887;57.196;-2.100;2023-09-08T06:21:26;13.27;;;12.87;;
22068;SDS011;13887;57.196;-2.100;2023-09-08T06:23:53;12.67;;;12.27;;
22068;SDS011;13887;57.196;-2.100;2023-09-08T06:26:21;12.97;;;12.57;;
22068;SDS011;13887;57.196;-2.100;2023-09-08T06:28:48;12.90;;;12.50;;
22068;SDS011;13887;57.196;-2.100;2023-09-08T06:31:16;13.30;;;12.90;;
22068;SDS011;13887;57.196;-2.100;2023-09-08T06:33:44;13.63;;;13.13;;
22068;SDS011;13887;57.196;-2.100;2023-09-08T06:36:11;13.20;;;12.80;;
22068;SDS011;13887;57.196;-2.100;2023-09-08T06:38:39;13.23;;;12.83;;
22068;SDS011;13887;57.196;-2.100;2023-09-08T06:41:09;13.00;;;12.60;;
22068;SDS011;13887;57.196;-2.100;2023-09-08T06:43:38;12.83;;;12.43;;
22068;SDS011;13887;57.196;-2.100;2023-09-08T06:46:12;12.83;;;12.43;;
22068;SDS011;13887;57.196;-2.100;2023-09-08T06:48:39;12.63;;;12.23;;
22068;SDS011;13887;57.196;-2.100;2023-09-08T06:51:07;12.37;;;11.97;;
22068;SDS011;13887;57.196;-2.100;2023-09-08T06:53:36;12.63;;;12.23;;
22068;SDS011;13887;57.196;-2.100;2023-09-08T06:56:03;12.50;;;12.10;;
22068;SDS011;13887;57.196;-2.100;2023-09-08T06:58:31;12.93;;;12.53;;
22068;SDS011;13887;57.196;-2.100;2023-09-08T07:00:59;12.87;;;12.47;;
22068;SDS011;13887;57.196;-2.100;2023-09-08T07:03:27;12.63;;;12.23;;
22068;SDS011;13887;57.196;-2.100;2023-09-08T07:05:56;13.10;;;12.70;;
22068;SDS011;13887;57.196;-2.100;2023-09-08T07:08:23;13.30;;;12.90;;
22068;SDS011;13887;57.196;-2.100;2023-09-08T07:10:53;13.03;;;12.63;;
22068;SDS011;13887;57.196;-2.100;2023-09-08T07:13:21;13.43;;;12.93;;
22068;SDS011;13887;57.196;-2.100;2023-09-08T07:15:48;13.50;;;13.00;;
22068;SDS011;13887;57.196;-2.100;2023-09-08T07:18:16;13.13;;;12.73;;
22068;SDS011;13887;57.196;-2.100;2023-09-08T07:20:47;12.93;;;12.53;;
22068;SDS011;13887;57.196;-2.100;2023-09-08T07:23:17;13.33;;;12.93;;
22068;SDS011;13887;57.196;-2.100;2023-09-08T07:25:48;13.80;;;13.30;;
22068;SDS011;13887;57.196;-2.100;2023-09-08T07:28:20;12.90;;;12.50;;
22068;SDS011;13887;57.196;-2.100;2023-09-08T07:30:51;13.70;;;13.20;;
22068;SDS011;13887;57.196;-2.100;2023-09-08T07:33:20;12.90;;;12.50;;
22068;SDS011;13887;57.196;-2.100;2023-09-08T07:35:51;13.20;;;12.80;;
22068;SDS011;13887;57.196;-2.100;2023-09-08T07:38:18;13.20;;;12.80;;
22068;SDS011;13887;57.196;-2.100;2023-09-08T07:40:46;13.00;;;12.60;;
22068;SDS011;13887;57.196;-2.100;2023-09-08T07:43:13;13.23;;;12.83;;
22068;SDS011;13887;57.196;-2.100;2023-09-08T07:45:41;13.33;;;12.93;;
22068;SDS011;13887;57.196;-2.100;2023-09-08T07:48:08;13.60;;;13.10;;
22068;SDS011;13887;57.196;-2.100;2023-09-08T07:50:36;12.93;;;12.53;;
22068;SDS011;13887;57.196;-2.100;2023-09-08T07:53:03;13.13;;;12.73;;
22068;SDS011;13887;57.196;-2.100;2023-09-08T07:55:31;13.20;;;12.80;;
22068;SDS011;13887;57.196;-2.100;2023-09-08T07:57:58;13.00;;;12.60;;
22068;SDS011;13887;57.196;-2.100;2023-09-08T08:00:25;13.07;;;12.67;;
22068;SDS011;13887;57.196;-2.100;2023-09-08T08:02:54;13.53;;;13.03;;
22068;SDS011;13887;57.196;-2.100;2023-09-08T08:05:22;13.03;;;12.63;;
22068;SDS011;13887;57.196;-2.100;2023-09-08T08:07:50;13.63;;;13.13;;
22068;SDS011;13887;57.196;-2.100;2023-09-08T08:10:18;13.27;;;12.87;;
22068;SDS011;13887;57.196;-2.100;2023-09-08T08:12:46;12.97;;;12.57;;
22068;SDS011;13887;57.196;-2.100;2023-09-08T08:15:13;13.20;;;12.80;;
22068;SDS011;13887;57.196;-2.100;2023-09-08T08:17:41;13.70;;;13.20;;
22068;SDS011;13887;57.196;-2.100;2023-09-08T08:20:09;13.30;;;12.90;;
22068;SDS011;13887;57.196;-2.100;2023-09-08T08:22:44;13.10;;;12.70;;
22068;SDS011;13887;57.196;-2.100;2023-09-08T08:25:12;13.70;;;13.20;;
22068;SDS011;13887;57.196;-2.100;2023-09-08T08:27:40;13.60;;;13.10;;
22068;SDS011;13887;57.196;-2.100;2023-09-08T08:30:08;13.53;;;13.03;;
22068;SDS011;13887;57.196;-2.100;2023-09-08T08:32:43;13.77;;;13.27;;
22068;SDS011;13887;57.196;-2.100;2023-09-08T08:35:10;13.50;;;13.00;;
22068;SDS011;13887;57.196;-2.100;2023-09-08T08:37:39;13.20;;;12.80;;
22068;SDS011;13887;57.196;-2.100;2023-09-08T08:40:09;13.17;;;12.77;;
22068;SDS011;13887;57.196;-2.100;2023-09-08T08:42:40;13.67;;;13.17;;
22068;SDS011;13887;57.196;-2.100;2023-09-08T08:45:09;13.87;;;13.37;;
22068;SDS011;13887;57.196;-2.100;2023-09-08T08:47:37;13.63;;;13.13;;
22068;SDS011;13887;57.196;-2.100;2023-09-08T08:50:06;13.30;;;12.90;;
22068;SDS011;13887;57.196;-2.100;2023-09-08T08:52:37;13.57;;;13.07;;
22068;SDS011;13887;57.196;-2.100;2023-09-08T08:55:06;13.70;;;13.20;;
22068;SDS011;13887;57.196;-2.100;2023-09-08T08:57:36;13.57;;;13.07;;
22068;SDS011;13887;57.196;-2.100;2023-09-08T09:00:05;14.40;;;13.90;;
22068;SDS011;13887;57.196;-2.100;2023-09-08T09:02:41;14.27;;;13.77;;
22068;SDS011;13887;57.196;-2.100;2023-09-08T09:05:14;14.00;;;13.50;;
22068;SDS011;13887;57.196;-2.100;2023-09-08T09:07:42;14.10;;;13.60;;
22068;SDS011;13887;57.196;-2.100;2023-09-08T09:10:10;13.87;;;13.37;;
22068;SDS011;13887;57.196;-2.100;2023-09-08T09:12:37;13.90;;;13.40;;
22068;SDS011;13887;57.196;-2.100;2023-09-08T09:15:05;13.70;;;13.20;;
22068;SDS011;13887;57.196;-2.100;2023-09-08T09:17:35;13.60;;;13.10;;
22068;SDS011;13887;57.196;-2.100;2023-09-08T09:20:12;13.80;;;13.30;;
22068;SDS011;13887;57.196;-2.100;2023-09-08T09:22:41;13.60;;;13.10;;
22068;SDS011;13887;57.196;-2.100;2023-09-08T09:25:09;13.57;;;13.07;;
22068;SDS011;13887;57.196;-2.100;2023-09-08T09:27:48;13.60;;;13.10;;
22068;SDS011;13887;57.196;-2.100;2023-09-08T09:30:19;13.30;;;12.90;;
22068;SDS011;13887;57.196;-2.100;2023-09-08T09:32:46;13.43;;;12.97;;
22068;SDS011;13887;57.196;-2.100;2023-09-08T09:35:16;13.30;;;12.90;;
22068;SDS011;13887;57.196;-2.100;2023-09-08T09:37:43;13.47;;;13.00;;
22068;SDS011;13887;57.196;-2.100;2023-09-08T09:40:11;13.53;;;13.03;;
22068;SDS011;13887;57.196;-2.100;2023-09-08T09:42:38;13.30;;;12.90;;
22068;SDS011;13887;57.196;-2.100;2023-09-08T09:45:07;13.60;;;13.10;;
22068;SDS011;13887;57.196;-2.100;2023-09-08T09:47:35;13.83;;;13.33;;
22068;SDS011;13887;57.196;-2.100;2023-09-08T09:50:03;13.50;;;13.00;;
22068;SDS011;13887;57.196;-2.100;2023-09-08T09:52:31;13.67;;;13.17;;
22068;SDS011;13887;57.196;-2.100;2023-09-08T09:54:59;13.80;;;13.30;;
22068;SDS011;13887;57.196;-2.100;2023-09-08T09:57:26;13.70;;;13.20;;
22068;SDS011;13887;57.196;-2.100;2023-09-08T09:59:53;13.90;;;13.40;;
22068;SDS011;13887;57.196;-2.100;2023-09-08T10:02:22;13.77;;;13.27;;
22068;SDS011;13887;57.196;-2.100;2023-09-08T10:04:50;13.67;;;13.17;;
22068;SDS011;13887;57.196;-2.100;2023-09-08T10:07:18;13.50;;;13.00;;
22068;SDS011;13887;57.196;-2.100;2023-09-08T10:09:46;13.47;;;12.97;;
22068;SDS011;13887;57.196;-2.100;2023-09-08T10:12:14;13.40;;;12.93;;
22068;SDS011;13887;57.196;-2.100;2023-09-08T10:14:42;13.57;;;13.07;;
22068;SDS011;13887;57.196;-2.100;2023-09-08T10:17:18;13.70;;;13.20;;
22068;SDS011;13887;57.196;-2.100;2023-09-08T10:19:49;13.40;;;12.97;;
22068;SDS011;13887;57.196;-2.100;2023-09-08T10:22:22;13.43;;;12.93;;
22068;SDS011;13887;57.196;-2.100;2023-09-08T10:24:54;13.37;;;12.97;;
22068;SDS011;13887;57.196;-2.100;2023-09-08T10:27:23;13.70;;;13.20;;
22068;SDS011;13887;57.196;-2.100;2023-09-08T10:29:51;13.30;;;12.90;;
22068;SDS011;13887;57.196;-2.100;2023-09-08T10:32:21;13.63;;;13.13;;
22068;SDS011;13887;57.196;-2.100;2023-09-08T10:34:49;13.43;;;12.93;;
22068;SDS011;13887;57.196;-2.100;2023-09-08T10:37:21;13.87;;;13.37;;
22068;SDS011;13887;57.196;-2.100;2023-09-08T10:39:51;13.80;;;13.30;;
22068;SDS011;13887;57.196;-2.100;2023-09-08T10:47:18;13.70;;;13.20;;
22068;SDS011;13887;57.196;-2.100;2023-09-08T10:49:52;13.83;;;13.33;;
22068;SDS011;13887;57.196;-2.100;2023-09-08T10:52:26;14.10;;;13.60;;
22068;SDS011;13887;57.196;-2.100;2023-09-08T10:54:54;14.00;;;13.50;;
22068;SDS011;13887;57.196;-2.100;2023-09-08T10:57:23;14.07;;;13.57;;
22068;SDS011;13887;57.196;-2.100;2023-09-08T10:59:53;13.97;;;13.47;;
22068;SDS011;13887;57.196;-2.100;2023-09-08T11:02:32;14.10;;;13.60;;
22068;SDS011;13887;57.196;-2.100;2023-09-08T11:05:09;14.40;;;13.90;;
22068;SDS011;13887;57.196;-2.100;2023-09-08T11:07:38;13.97;;;13.47;;
22068;SDS011;13887;57.196;-2.100;2023-09-08T11:10:07;13.77;;;13.27;;
22068;SDS011;13887;57.196;-2.100;2023-09-08T11:12:35;14.20;;;13.70;;
22068;SDS011;13887;57.196;-2.100;2023-09-08T11:15:04;14.10;;;13.60;;
22068;SDS011;13887;57.196;-2.100;2023-09-08T11:17:35;14.30;;;13.80;;
22068;SDS011;13887;57.196;-2.100;2023-09-08T11:20:07;14.17;;;13.67;;
22068;SDS011;13887;57.196;-2.100;2023-09-08T11:22:37;14.30;;;13.80;;
22068;SDS011;13887;57.196;-2.100;2023-09-08T11:25:06;14.30;;;13.80;;
22068;SDS011;13887;57.196;-2.100;2023-09-08T11:27:34;14.00;;;13.50;;
22068;SDS011;13887;57.196;-2.100;2023-09-08T11:30:02;14.03;;;13.53;;
22068;SDS011;13887;57.196;-2.100;2023-09-08T11:32:35;13.90;;;13.40;;
22068;SDS011;13887;57.196;-2.100;2023-09-08T11:35:06;14.10;;;13.60;;
22068;SDS011;13887;57.196;-2.100;2023-09-08T11:37:37;14.20;;;13.70;;
22068;SDS011;13887;57.196;-2.100;2023-09-08T11:40:08;14.23;;;13.73;;
22068;SDS011;13887;57.196;-2.100;2023-09-08T11:42:41;14.33;;;13.83;;
22068;SDS011;13887;57.196;-2.100;2023-09-08T11:45:15;13.63;;;13.13;;
22068;SDS011;13887;57.196;-2.100;2023-09-08T11:47:50;14.10;;;13.60;;
22068;SDS011;13887;57.196;-2.100;2023-09-08T11:50:20;14.00;;;13.50;;
22068;SDS011;13887;57.196;-2.100;2023-09-08T11:52:48;14.40;;;13.90;;
22068;SDS011;13887;57.196;-2.100;2023-09-08T11:55:16;14.30;;;13.80;;
22068;SDS011;13887;57.196;-2.100;2023-09-08T11:57:48;14.40;;;13.90;;
22068;SDS011;13887;57.196;-2.100;2023-09-08T12:00:18;14.97;;;14.47;;
22068;SDS011;13887;57.196;-2.100;2023-09-08T12:02:47;14.37;;;13.87;;
22068;SDS011;13887;57.196;-2.100;2023-09-08T12:05:22;14.23;;;13.73;;
22068;SDS011;13887;57.196;-2.100;2023-09-08T12:07:57;14.17;;;13.67;;
22068;SDS011;13887;57.196;-2.100;2023-09-08T12:10:25;14.30;;;13.80;;
22068;SDS011;13887;57.196;-2.100;2023-09-08T12:12:53;13.70;;;13.20;;
22068;SDS011;13887;57.196;-2.100;2023-09-08T12:18:14;14.50;;;14.00;;
22068;SDS011;13887;57.196;-2.100;2023-09-08T12:20:42;14.40;;;13.90;;
22068;SDS011;13887;57.196;-2.100;2023-09-08T12:25:48;14.73;;;14.23;;
22068;SDS011;13887;57.196;-2.100;2023-09-08T12:28:17;14.30;;;13.80;;
22068;SDS011;13887;57.196;-2.100;2023-09-08T12:30:46;14.50;;;14.00;;
22068;SDS011;13887;57.196;-2.100;2023-09-08T12:33:15;14.30;;;13.80;;
22068;SDS011;13887;57.196;-2.100;2023-09-08T12:35:43;14.67;;;14.17;;
22068;SDS011;13887;57.196;-2.100;2023-09-08T12:38:15;14.33;;;13.83;;
22068;SDS011;13887;57.196;-2.100;2023-09-08T12:40:43;14.30;;;13.80;;
22068;SDS011;13887;57.196;-2.100;2023-09-08T12:43:10;14.60;;;14.10;;
22068;SDS011;13887;57.196;-2.100;2023-09-08T12:45:52;14.43;;;13.93;;
22068;SDS011;13887;57.196;-2.100;2023-09-08T12:48:19;14.57;;;14.07;;
22068;SDS011;13887;57.196;-2.100;2023-09-08T12:50:47;14.63;;;14.13;;
22068;SDS011;13887;57.196;-2.100;2023-09-08T12:53:16;14.67;;;14.17;;
22068;SDS011;13887;57.196;-2.100;2023-09-08T12:55:47;14.13;;;13.63;;
22068;SDS011;13887;57.196;-2.100;2023-09-08T12:58:15;14.67;;;14.17;;
22068;SDS011;13887;57.196;-2.100;2023-09-08T13:00:43;14.43;;;13.93;;
22068;SDS011;13887;57.196;-2.100;2023-09-08T13:03:10;14.20;;;13.70;;
22068;SDS011;13887;57.196;-2.100;2023-09-08T13:05:38;13.90;;;13.40;;
22068;SDS011;13887;57.196;-2.100;2023-09-08T13:08:06;14.47;;;13.97;;
22068;SDS011;13887;57.196;-2.100;2023-09-08T13:10:33;14.60;;;14.10;;
22068;SDS011;13887;57.196;-2.100;2023-09-08T13:13:01;14.20;;;13.70;;
22068;SDS011;13887;57.196;-2.100;2023-09-08T13:15:28;14.17;;;13.67;;
22068;SDS011;13887;57.196;-2.100;2023-09-08T13:17:56;14.33;;;13.83;;
22068;SDS011;13887;57.196;-2.100;2023-09-08T13:20:23;14.13;;;13.63;;
22068;SDS011;13887;57.196;-2.100;2023-09-08T13:22:51;14.27;;;13.77;;
22068;SDS011;13887;57.196;-2.100;2023-09-08T13:25:19;14.23;;;13.73;;
22068;SDS011;13887;57.196;-2.100;2023-09-08T13:27:47;14.00;;;13.50;;
22068;SDS011;13887;57.196;-2.100;2023-09-08T13:30:15;14.33;;;13.83;;
22068;SDS011;13887;57.196;-2.100;2023-09-08T13:32:43;14.37;;;13.87;;
22068;SDS011;13887;57.196;-2.100;2023-09-08T13:35:12;14.30;;;13.80;;
22068;SDS011;13887;57.196;-2.100;2023-09-08T13:37:39;14.27;;;13.77;;
22068;SDS011;13887;57.196;-2.100;2023-09-08T13:40:07;14.20;;;13.70;;
22068;SDS011;13887;57.196;-2.100;2023-09-08T13:42:35;14.37;;;13.87;;
22068;SDS011;13887;57.196;-2.100;2023-09-08T13:45:04;14.10;;;13.60;;
22068;SDS011;13887;57.196;-2.100;2023-09-08T13:47:31;13.87;;;13.37;;
22068;SDS011;13887;57.196;-2.100;2023-09-08T13:50:00;14.33;;;13.83;;
22068;SDS011;13887;57.196;-2.100;2023-09-08T13:52:32;14.20;;;13.70;;
22068;SDS011;13887;57.196;-2.100;2023-09-08T13:55:04;14.27;;;13.77;;
22068;SDS011;13887;57.196;-2.100;2023-09-08T13:57:37;13.80;;;13.30;;
22068;SDS011;13887;57.196;-2.100;2023-09-08T14:00:07;13.93;;;13.43;;
22068;SDS011;13887;57.196;-2.100;2023-09-08T14:02:42;13.70;;;13.20;;
22068;SDS011;13887;57.196;-2.100;2023-09-08T14:05:16;14.00;;;13.50;;
22068;SDS011;13887;57.196;-2.100;2023-09-08T14:07:46;14.20;;;13.70;;
22068;SDS011;13887;57.196;-2.100;2023-09-08T14:10:23;14.50;;;14.00;;
22068;SDS011;13887;57.196;-2.100;2023-09-08T14:12:53;14.17;;;13.67;;
22068;SDS011;13887;57.196;-2.100;2023-09-08T14:15:21;13.97;;;13.47;;
22068;SDS011;13887;57.196;-2.100;2023-09-08T14:17:48;14.20;;;13.70;;
22068;SDS011;13887;57.196;-2.100;2023-09-08T14:20:16;14.27;;;13.77;;
22068;SDS011;13887;57.196;-2.100;2023-09-08T14:22:43;13.77;;;13.27;;
22068;SDS011;13887;57.196;-2.100;2023-09-08T14:25:12;15.90;;;15.30;;
22068;SDS011;13887;57.196;-2.100;2023-09-08T14:27:42;13.57;;;13.10;;
22068;SDS011;13887;57.196;-2.100;2023-09-08T14:30:09;13.90;;;13.40;;
22068;SDS011;13887;57.196;-2.100;2023-09-08T14:32:37;13.90;;;13.40;;